Flight Track Log - Related Links

Times and Time Zones

All times are in EST time to prevent confusion due to time zone crossing. See the ARF93 flight status page for this flight to view local times or setup timezone preferences in your user account.

Time Position Orientation Groundspeed Altitude Reporting Facility
EST Latitude Longitude Course Direction KTS MPH feet Rate Location/Type
Sat 01:16:33 PM 39.6667 -86.0833 360° North 99 114 2,100  Level Indianapolis TRACON
Sat 01:17:46 PM 39.7000 -86.0833 360° North 97 112 3,100 541 Climbing Indianapolis TRACON
Sat 01:18:46 PM 39.7333 -86.0833 57° Northeast 117 135 3,300 53 Climbing Indianapolis TRACON
Sat 01:19:40 PM 39.7500 -86.0500 49° Northeast 141 162 3,200 -111 Descending Indianapolis TRACON
Sat 01:20:34 PM 39.7833 -86.0000 38° Northeast 139 160 3,100 -50 Descending Indianapolis TRACON
Sat 01:21:40 PM 39.8000 -85.9833 360° North 124 143 3,100  Level Indianapolis TRACON
Sat 01:22:34 PM 39.8333 -85.9833 339° North 127 146 3,100 158 Level Indianapolis TRACON
Sat 01:23:34 PM 39.8667 -86.0000 339° North 106 122 3,400 429 Climbing Indianapolis TRACON
Sat 01:24:40 PM 39.9000 -86.0167 303° West 107 123 4,000 450 Climbing Indianapolis TRACON
Sat 01:25:34 PM 39.9167 -86.0500 339° North 108 124 4,300 368 Climbing Indianapolis TRACON
Sat 01:26:34 PM 39.9500 -86.0667 323° Northwest 111 128 4,700 368 Climbing Indianapolis TRACON
Sat 01:27:28 PM 39.9667 -86.0833 339° North 111 128 5,000 500 Climbing Indianapolis TRACON
Sat 01:28:46 PM 40.0000 -86.1000 339° North 110 127 5,800 455 Climbing Indianapolis TRACON
Sat 01:29:40 PM 40.0333 -86.1167 323° Northwest 110 127 6,000 111 Climbing Indianapolis TRACON
Sat 01:30:34 PM 40.0500 -86.1333 334° Northwest 119 137 6,000  Level Indianapolis TRACON
Sat 01:30:42 PM 40.0578 -86.1383 334° Northwest 120 138 6,000  Level Chicago Center
Sat 01:31:49 PM 40.0939 -86.1611 344° North 123 142 6,000  Level Chicago Center
Sat 01:32:49 PM 40.1256 -86.1731 319° Northwest 124 143 6,000  Level Chicago Center
Sat 01:33:50 PM 40.1536 -86.2044 331° Northwest 126 145 6,000  Level Chicago Center
Sat 01:34:51 PM 40.1811 -86.2247 324° Northwest 124 143 6,000  Level Chicago Center
Sat 01:35:51 PM 40.2111 -86.2533 331° Northwest 123 142 6,000 50 Level Chicago Center
Sat 01:36:52 PM 40.2389 -86.2736 319° Northwest 124 143 6,100 50 Climbing Chicago Center
Sat 01:37:52 PM 40.2667 -86.3050 327° Northwest 123 142 6,100  Level Chicago Center
Sat 01:38:53 PM 40.2967 -86.3308 324° Northwest 125 144 6,100  Level Chicago Center
Sat 01:39:54 PM 40.3244 -86.3569 322° Northwest 125 144 6,100 -50 Level Chicago Center
Sat 01:40:54 PM 40.3522 -86.3856 322° Northwest 124 143 6,000 -50 Descending Chicago Center
Sat 01:41:55 PM 40.3803 -86.4144 328° Northwest 127 146 6,000  Level Chicago Center
Sat 01:42:55 PM 40.4122 -86.4403 324° Northwest 126 145 6,000  Level Chicago Center
Sat 01:43:56 PM 40.4400 -86.4664 327° Northwest 125 144 6,000  Level Chicago Center
Sat 01:44:57 PM 40.4675 -86.4897 327° Northwest 124 143 6,000  Level Chicago Center
Sat 01:45:57 PM 40.4975 -86.5158 320° Northwest 121 139 6,000 50 Level Chicago Center
Sat 01:46:58 PM 40.5211 -86.5419 322° Northwest 119 137 6,100 52 Climbing Chicago Center
Sat 01:47:52 PM 40.5467 -86.5683 327° Northwest 122 140 6,100  Level Chicago Center
Sat 01:48:53 PM 40.5744 -86.5917 317° Northwest 122 140 6,100 -49 Level Chicago Center
Sat 01:49:54 PM 40.6003 -86.6233 328° Northwest 124 143 6,000 -50 Descending Chicago Center
Sat 01:50:54 PM 40.6319 -86.6494 312° West 125 144 6,000  Level Chicago Center
Sat 01:51:55 PM 40.6536 -86.6814 326° Northwest 123 142 6,000  Level Chicago Center
Sat 01:52:53 PM 40.6833 -86.7075 278° West 125 144 6,000  Level Chicago Center
Sat 01:52:55 PM 40.6836 -86.7103 319° Northwest 122 140 6,000  Level Chicago Center
Sat 01:53:53 PM 40.7069 -86.7369 329° Northwest 130 150 6,000  Level Chicago Center
Sat 01:54:53 PM 40.7367 -86.7603 328° Northwest 136 157 6,000 50 Level Chicago Center
Sat 01:55:53 PM 40.7686 -86.7864 324° Northwest 131 151 6,100  Climbing Chicago Center
Sat 01:56:53 PM 40.7964 -86.8128 329° Northwest 131 151 6,000 -50 Descending Chicago Center
Sat 01:57:53 PM 40.8261 -86.8364 327° Northwest 131 151 6,000  Level Chicago Center
Sat 01:58:53 PM 40.8536 -86.8600 327° Northwest 131 151 6,000  Level Chicago Center
Sat 01:59:53 PM 40.8814 -86.8836 324° Northwest 126 145 6,000 50 Level Chicago Center
Sat 02:00:54 PM 40.9089 -86.9103 325° Northwest 126 145 6,100 50 Climbing Chicago Center
Sat 02:01:53 PM 40.9344 -86.9339 326° Northwest 126 145 6,100  Level Chicago Center
Sat 02:02:53 PM 40.9642 -86.9603 324° Northwest 126 145 6,100 -50 Level Chicago Center
Sat 02:03:53 PM 40.9919 -86.9869 329° Northwest 126 145 6,000 -50 Descending Chicago Center
Sat 02:04:53 PM 41.0217 -87.0106 321° Northwest 126 145 6,000 -50 Level Chicago Center
Sat 02:05:53 PM 41.0492 -87.0397 324° Northwest 126 145 5,900 -200 Descending Chicago Center
Sat 02:06:53 PM 41.0769 -87.0664 328° Northwest 126 145 5,600 -350 Descending Chicago Center
Sat 02:07:53 PM 41.1086 -87.0928 321° Northwest 131 151 5,200 -400 Descending Chicago Center
Sat 02:08:53 PM 41.1386 -87.1250 326° Northwest 131 151 4,800 -250 Descending Chicago Center
Sat 02:09:53 PM 41.1683 -87.1514 321° Northwest 131 151 4,700 -150 Descending Chicago Center
Sat 02:10:53 PM 41.1958 -87.1808 321° Northwest 131 151 4,500 -100 Descending Chicago Center
Sat 02:11:53 PM 41.2236 -87.2103 322° Northwest 131 151 4,500 50 Level Chicago Center
Sat 02:12:53 PM 41.2492 -87.2372 317° Northwest 131 151 4,600 -150 Climbing Chicago Center
Sat 02:13:53 PM 41.2747 -87.2694 324° Northwest 131 151 4,200 -500 Descending Chicago Center
Sat 02:14:53 PM 41.3086 -87.3017 321° Northwest 131 151 3,600 -550 Descending Chicago Center
Sat 02:15:53 PM 41.3383 -87.3339 328° Northwest 136 157 3,100 -350 Descending Chicago Center
Sat 02:16:53 PM 41.3700 -87.3606 341° North 131 151 2,900  Descending Chicago Center
Sat 02:17:21 PM 41.3833 -87.3667 331° Northwest 124 143 3,100 100 Climbing Chicago TRACON
Sat 02:17:53 PM 41.3997 -87.3789 North 131 151 3,000 -65 Descending Chicago Center
Sat 02:18:53 PM 41.4308 -87.3781 313° West 126 145 3,000  Level Chicago Center
Sat 02:26:29 PM 41.6046 -87.6313 130° Southeast  Level Estimated
Sat 02:34:29 PM 41.5333 -87.5167 130° Southeast  Level FlightAware Approximate

Login

Don't have an account? Register now (free) for customized features, flight alerts, and more!